Time;durP1;ratioP1;P1;durP2;ratioP2;P2;SDS_P1;SDS_P2;PMS_P1;PMS_P2;Temp;Humidity;BMP_temperature;BMP_pressure;BME280_temperature;BME280_humidity;BME280_pressure;Samples;Min_cycle;Max_cycle;Signal;HPM_P1;HPM_P2
2022/08/22 00:00:14;;;;;;;5.25;1.92;;;;;;;16.95;78.33;100827.17;1533141;91;21154;-77
2022/08/22 00:03:17;;;;;;;8.83;1.90;;;;;;;16.95;78.31;100828.02;1604652;87;21124;-77
2022/08/22 00:06:28;;;;;;;4.53;2.22;;;;;;;16.93;78.34;100824.63;1613375;86;21096;-77
2022/08/22 00:09:40;;;;;;;4.28;1.95;;;;;;;16.92;78.31;100828.14;1609864;87;21579;-77
2022/08/22 00:12:39;;;;;;;2.58;1.80;;;;;;;16.90;78.29;100826.05;1613418;86;21383;-78
2022/08/22 00:15:53;;;;;;;2.17;1.65;;;;;;;16.87;78.29;100824.86;1600941;86;21095;-79
2022/08/22 00:18:53;;;;;;;3.08;1.90;;;;;;;16.86;78.30;100827.08;1604093;87;21702;-78
2022/08/22 00:22:02;;;;;;;8.08;2.25;;;;;;;16.86;78.34;100830.99;1621038;87;21523;-78
2022/08/22 00:25:11;;;;;;;3.55;1.80;;;;;;;16.84;78.32;100834.97;1599404;86;21535;-78
2022/08/22 00:28:07;;;;;;;5.17;2.10;;;;;;;16.83;78.33;100831.96;1614883;87;21333;-78
2022/08/22 00:31:23;;;;;;;2.58;1.65;;;;;;;16.81;78.33;100828.55;1530212;91;21130;-78
2022/08/22 00:34:35;;;;;;;4.58;2.30;;;;;;;16.81;78.31;100832.47;1599618;86;21144;-77
2022/08/22 00:37:39;;;;;;;6.60;1.95;;;;;;;16.78;78.31;100831.28;1614022;87;21143;-77
2022/08/22 00:40:41;;;;;;;4.37;1.82;;;;;;;16.76;78.32;100833.10;1611484;87;21099;-78
2022/08/22 00:43:53;;;;;;;5.95;1.90;;;;;;;16.76;78.35;100830.95;1623669;87;21622;-78
2022/08/22 00:47:01;;;;;;;2.50;1.80;;;;;;;16.75;78.32;100830.55;1605387;87;21072;-78
2022/08/22 00:50:20;;;;;;;3.10;1.85;;;;;;;16.73;78.35;100831.06;1596401;87;21075;-78
2022/08/22 00:53:13;;;;;;;4.87;1.90;;;;;;;16.74;78.36;100831.45;1614035;87;21092;-78
2022/08/22 00:56:30;;;;;;;5.00;1.75;;;;;;;16.74;78.39;100834.92;1614324;86;21567;-78
2022/08/22 00:59:32;;;;;;;2.95;1.82;;;;;;;16.74;78.38;100834.92;1614436;86;21119;-77
2022/08/22 01:02:51;;;;;;;3.85;1.50;;;;;;;16.75;78.38;100837.92;1611170;86;21076;-78
2022/08/22 01:06:01;;;;;;;3.80;1.72;;;;;;;16.75;78.36;100834.02;1637032;85;22119;-78
2022/08/22 01:09:19;;;;;;;6.17;1.67;;;;;;;16.74;78.38;100838.84;1642676;85;21087;-78
2022/08/22 01:12:49;;;;;;;1.92;1.55;;;;;;;16.74;78.34;100837.53;1636073;85;21026;-78
2022/08/22 01:15:36;;;;;;;5.12;1.82;;;;;;;16.74;78.35;100839.29;1644439;85;21085;-78
2022/08/22 01:18:33;;;;;;;3.02;1.62;;;;;;;16.74;78.36;100841.91;1641606;85;21138;-78
2022/08/22 01:21:29;;;;;;;5.17;1.72;;;;;;;16.74;78.36;100848.44;1640069;85;21600;-78
2022/08/22 01:25:18;;;;;;;4.37;1.80;;;;;;;16.74;78.38;100848.44;1652738;85;21057;-78
2022/08/22 01:28:26;;;;;;;4.53;1.90;;;;;;;16.72;78.40;100849.80;1570335;88;21692;-78
2022/08/22 01:31:41;;;;;;;7.70;1.70;;;;;;;16.70;78.39;100851.61;1604304;86;21604;-78
2022/08/22 01:34:43;;;;;;;8.15;1.87;;;;;;;16.71;78.41;100854.63;1599001;88;21088;-77
2022/08/22 01:37:46;;;;;;;3.58;1.70;;;;;;;16.71;78.40;100852.01;1514318;91;21128;-78
2022/08/22 01:40:53;;;;;;;3.55;2.17;;;;;;;16.72;78.39;100859.39;1538812;90;21117;-78
2022/08/22 01:44:26;;;;;;;5.72;1.77;;;;;;;16.72;78.39;100859.39;1526174;91;21144;-78
2022/08/22 01:47:23;;;;;;;3.72;1.70;;;;;;;16.70;78.39;100853.38;1542906;90;21142;-78
2022/08/22 01:50:40;;;;;;;;;;;;;;;16.68;78.39;100857.80;1528680;92;21161;-78
2022/08/22 01:53:37;;;;;;;6.78;2.20;;;;;;;16.68;78.49;100859.11;1523759;92;20227;-78
2022/08/22 01:56:24;;;;;;;;;;;;;;;16.66;78.40;100860.47;1522207;91;21446;-79
2022/08/22 01:59:15;;;;;;;3.92;1.67;;;;;;;16.66;78.54;100863.08;1537789;90;20309;-78
2022/08/22 02:02:17;;;;;;;4.47;1.85;;;;;;;16.66;78.39;100867.45;1538701;91;21997;-78
2022/08/22 02:05:29;;;;;;;5.03;1.80;;;;;;;16.66;78.40;100863.53;1580016;89;21131;-78
2022/08/22 02:08:39;;;;;;;7.85;2.08;;;;;;;16.66;78.40;100862.22;1607972;87;20983;-79
2022/08/22 02:11:58;;;;;;;4.83;1.72;;;;;;;16.66;78.40;100860.92;1642228;85;21063;-79
2022/08/22 02:14:57;;;;;;;4.55;1.85;;;;;;;16.66;78.39;100858.31;1637879;85;21134;-78
2022/08/22 02:17:53;;;;;;;2.67;1.72;;;;;;;16.66;78.40;100859.16;1643461;85;21082;-79
2022/08/22 02:21:00;;;;;;;3.95;1.82;;;;;;;16.64;78.39;100860.98;1628951;85;22277;-78
2022/08/22 02:23:59;;;;;;;4.65;1.77;;;;;;;16.64;78.40;100861.40;1646061;85;21117;-78
2022/08/22 02:27:14;;;;;;;3.52;1.75;;;;;;;16.62;78.38;100869.77;1636421;85;21049;-78
2022/08/22 02:30:17;;;;;;;5.30;1.92;;;;;;;16.60;78.40;100858.53;1590612;88;21121;-77
2022/08/22 02:33:22;;;;;;;3.22;1.72;;;;;;;16.59;78.50;100868.58;1617738;87;21524;-78
2022/08/22 02:36:31;;;;;;;7.37;1.57;;;;;;;16.58;78.42;100869.03;1604165;88;21018;-78
2022/08/22 02:39:36;;;;;;;5.58;2.05;;;;;;;16.59;78.45;100869.44;1604749;87;21024;-78
2022/08/22 02:42:29;;;;;;;8.20;2.00;;;;;;;16.60;78.44;100867.22;1596808;88;21105;-78
2022/08/22 02:45:32;;;;;;;3.92;1.62;;;;;;;16.60;78.45;100859.39;1631025;86;21129;-78
2022/08/22 02:48:28;;;;;;;3.72;1.75;;;;;;;16.60;78.44;100863.76;1623057;86;21086;-79
2022/08/22 02:51:30;;;;;;;3.65;1.60;;;;;;;16.59;78.46;100864.21;1605303;88;21065;-79
2022/08/22 02:55:00;;;;;;;7.20;1.47;;;;;;;16.59;78.48;100859.44;1593148;88;21102;-78
2022/08/22 02:57:57;;;;;;;3.83;1.80;;;;;;;16.60;78.48;100863.76;1606083;87;21085;-78
2022/08/22 03:00:50;;;;;;;2.95;2.08;;;;;;;16.59;78.47;100862.91;1537395;89;21076;-78
2022/08/22 03:03:41;;;;;;;5.03;1.80;;;;;;;16.60;78.48;100867.22;1593663;87;21167;-78
2022/08/22 03:06:45;;;;;;;7.72;2.27;;;;;;;16.60;78.46;100864.61;1636679;84;21136;-78
2022/08/22 03:09:50;;;;;;;2.22;1.80;;;;;;;16.59;78.48;100865.97;1593967;85;21152;-78
2022/08/22 03:13:02;;;;;;;2.90;1.98;;;;;;;16.55;78.49;100854.34;1639889;85;21084;-79
2022/08/22 03:16:01;;;;;;;5.78;1.77;;;;;;;16.55;78.51;100853.48;1641067;86;21049;-78
2022/08/22 03:19:06;;;;;;;6.80;2.10;;;;;;;16.53;78.50;100847.02;1603348;87;21699;-79
2022/08/22 03:22:08;;;;;;;3.08;1.90;;;;;;;16.53;78.53;100847.47;1598569;88;21157;-79
2022/08/22 03:25:30;;;;;;;5.15;2.00;;;;;;;16.52;78.54;100847.92;1636128;85;21751;-79
2022/08/22 03:28:32;;;;;;;2.62;2.08;;;;;;;16.51;78.54;100848.83;1577260;89;21588;-78
2022/08/22 03:31:26;;;;;;;3.27;1.70;;;;;;;16.51;78.55;100841.00;1627434;87;21081;-78
2022/08/22 03:34:22;;;;;;;4.25;2.00;;;;;;;16.51;78.57;100844.91;1601899;88;20956;-78
2022/08/22 03:37:26;;;;;;;2.90;1.87;;;;;;;16.48;78.56;100845.02;1597434;88;20959;-79
2022/08/22 03:40:33;;;;;;;4.80;1.85;;;;;;;16.50;78.58;100852.80;1599396;88;21409;-79
2022/08/22 03:43:48;;;;;;;4.62;1.80;;;;;;;16.51;78.59;100855.80;1603823;87;21407;-79
2022/08/22 03:47:08;;;;;;;4.58;2.05;;;;;;;16.50;78.58;100855.41;1596539;88;21029;-79
2022/08/22 03:50:29;;;;;;;5.95;2.02;;;;;;;16.50;78.57;100848.88;1595221;88;21181;-79
2022/08/22 03:53:36;;;;;;;6.37;2.17;;;;;;;16.51;78.61;100861.88;1590464;88;21097;-79
2022/08/22 03:57:06;;;;;;;3.58;1.62;;;;;;;16.50;78.62;100861.94;1616281;86;21343;-78
2022/08/22 04:00:01;;;;;;;2.67;1.80;;;;;;;16.52;78.67;100867.50;1625236;86;21122;-79
2022/08/22 04:03:07;;;;;;;4.20;2.02;;;;;;;16.52;78.66;100862.28;1621231;86;21564;-79
2022/08/22 04:06:18;;;;;;;5.35;2.30;;;;;;;16.53;78.68;100869.66;1602865;88;21177;-79
2022/08/22 04:09:23;;;;;;;4.55;2.02;;;;;;;16.55;78.67;100865.23;1621629;86;21363;-79
2022/08/22 04:12:28;;;;;;;3.67;2.25;;;;;;;16.54;78.67;100867.44;1566997;89;21131;-79
2022/08/22 04:15:44;;;;;;;7.87;1.93;;;;;;;16.54;78.64;100866.14;1582990;88;21025;-79
2022/08/22 04:18:40;;;;;;;3.67;2.15;;;;;;;16.53;78.70;100861.38;1588369;88;21077;-77
2022/08/22 04:22:11;;;;;;;5.75;2.08;;;;;;;16.53;78.66;100868.34;495369;85;10018947;-77
2022/08/22 04:25:13;;;;;;;5.28;1.85;;;;;;;16.53;78.66;100868.34;1642000;86;20971;-77
2022/08/22 04:28:30;;;;;;;6.85;2.77;;;;;;;16.53;78.72;100874.88;1639271;87;21060;-77
2022/08/22 04:31:24;;;;;;;2.52;2.00;;;;;;;16.53;78.74;100871.81;1639557;86;21130;-79
2022/08/22 04:34:23;;;;;;;7.22;2.10;;;;;;;16.55;78.73;100880.44;1644495;86;21126;-77
2022/08/22 04:37:28;;;;;;;4.70;2.00;;;;;;;16.57;78.76;100883.45;1643413;86;21078;-78
2022/08/22 04:40:34;;;;;;;3.10;1.90;;;;;;;16.57;78.80;100881.69;1644243;87;21145;-78
2022/08/22 04:43:33;;;;;;;6.33;2.77;;;;;;;16.60;78.83;100888.11;1646746;87;21176;-78
2022/08/22 04:46:27;;;;;;;3.42;2.05;;;;;;;16.61;78.79;100888.95;1637820;87;21175;-79
2022/08/22 04:49:47;;;;;;;3.55;2.58;;;;;;;16.61;78.79;100890.27;1646316;86;21090;-79
2022/08/22 04:53:01;;;;;;;3.62;2.02;;;;;;;16.63;78.84;100889.30;1660737;85;21042;-79
2022/08/22 04:56:04;;;;;;;3.67;2.20;;;;;;;16.65;78.86;100886.18;1670609;85;21136;-78
2022/08/22 04:59:00;;;;;;;3.75;2.30;;;;;;;16.66;78.85;100891.80;1666367;85;21606;-78
2022/08/22 05:01:57;;;;;;;7.58;2.22;;;;;;;16.65;78.84;100887.94;1672177;85;21144;-78
2022/08/22 05:04:47;;;;;;;3.70;2.20;;;;;;;16.67;78.88;100895.27;1669351;85;21061;-78
2022/08/22 05:07:40;;;;;;;4.30;2.62;;;;;;;16.68;78.89;100896.97;1676399;85;21446;-78
2022/08/22 05:10:35;;;;;;;4.03;2.50;;;;;;;16.69;78.89;100905.20;1676823;85;21093;-78
2022/08/22 05:13:28;;;;;;;3.67;2.05;;;;;;;16.71;78.90;100900.77;1643874;86;21166;-78
2022/08/22 05:16:19;;;;;;;2.65;2.40;;;;;;;16.74;78.93;100909.34;1622847;87;21069;-78
2022/08/22 05:19:15;;;;;;;3.92;2.45;;;;;;;16.75;78.91;100907.13;1673087;85;20971;-79
2022/08/22 05:22:02;;;;;;;7.28;2.70;;;;;;;16.78;78.93;100910.09;1676257;85;21057;-78
2022/08/22 05:24:51;;;;;;;5.10;2.50;;;;;;;16.81;78.99;100906.05;1665527;83;21033;-78
2022/08/22 05:27:43;;;;;;;4.30;2.58;;;;;;;16.84;78.97;100911.17;1650371;85;21556;-79
2022/08/22 05:30:30;;;;;;;3.12;2.77;;;;;;;16.87;78.95;100913.66;1674464;84;21025;-79
2022/08/22 05:33:33;;;;;;;5.83;2.77;;;;;;;16.90;78.98;100910.94;1679001;85;21505;-77
2022/08/22 05:36:29;;;;;;;5.03;2.50;;;;;;;16.93;78.99;100909.97;1672924;85;21515;-78
2022/08/22 05:39:19;;;;;;;6.65;2.85;;;;;;;16.97;79.02;100908.95;1671277;85;21080;-79
2022/08/22 05:42:06;;;;;;;6.03;2.70;;;;;;;17.02;79.02;100913.09;1679672;85;21057;-79
2022/08/22 05:44:51;;;;;;;6.85;2.80;;;;;;;17.06;79.03;100913.38;1649545;84;21596;-78
2022/08/22 05:47:45;;;;;;;4.28;2.70;;;;;;;17.11;79.00;100916.67;1654571;85;20985;-78
2022/08/22 05:50:42;;;;;;;6.35;3.12;;;;;;;17.15;79.04;100926.09;1670081;85;21090;-78
2022/08/22 05:53:38;;;;;;;6.37;2.90;;;;;;;17.23;79.07;100923.61;1671778;85;21064;-78
2022/08/22 05:56:40;;;;;;;3.98;3.15;;;;;;;17.29;79.09;100922.06;1673107;85;21125;-79
2022/08/22 05:59:37;;;;;;;6.33;3.60;;;;;;;17.34;79.08;100926.20;1666270;83;21129;-79
2022/08/22 06:02:30;;;;;;;4.15;3.15;;;;;;;17.39;79.08;100924.72;1670090;84;21053;-78
2022/08/22 06:05:29;;;;;;;8.43;3.47;;;;;;;17.43;79.07;100925.00;1667480;84;21046;-78
2022/08/22 06:08:26;;;;;;;10.10;3.17;;;;;;;17.46;79.09;100930.11;1633533;86;21086;-79
2022/08/22 06:11:25;;;;;;;12.78;3.70;;;;;;;17.48;79.09;100928.28;1673999;84;21065;-79
2022/08/22 06:14:16;;;;;;;5.78;3.60;;;;;;;17.49;79.10;100932.14;1639792;86;21073;-79
2022/08/22 06:17:23;;;;;;;5.40;3.35;;;;;;;17.51;79.10;100933.39;1622485;86;21366;-79
2022/08/22 06:20:13;;;;;;;8.68;4.05;;;;;;;17.51;79.07;100930.32;1676201;85;21062;-79
2022/08/22 06:23:01;;;;;;;8.98;4.00;;;;;;;17.52;79.11;100935.95;1646581;84;21573;-79
2022/08/22 06:25:49;;;;;;;8.13;3.60;;;;;;;17.54;79.16;100928.05;1653089;86;21098;-79
2022/08/22 06:28:41;;;;;;;6.92;3.77;;;;;;;17.57;79.17;100927.92;1659980;85;21061;-79
2022/08/22 06:31:33;;;;;;;13.55;4.60;;;;;;;17.60;79.13;100927.80;1651343;86;21549;-79
2022/08/22 06:34:35;;;;;;;7.15;3.95;;;;;;;17.62;79.16;100926.43;1664782;85;21042;-79
2022/08/22 06:37:35;;;;;;;6.87;4.08;;;;;;;17.64;79.23;100929.84;1665339;85;21145;-79
2022/08/22 06:40:21;;;;;;;6.10;3.95;;;;;;;17.69;79.19;100933.97;1652513;86;21062;-79
2022/08/22 06:43:06;;;;;;;5.75;4.15;;;;;;;17.74;79.28;100931.17;1672115;85;21006;-79
2022/08/22 06:45:52;;;;;;;5.25;4.30;;;;;;;17.77;79.30;100927.97;1653588;85;21105;-79
2022/08/22 06:48:38;;;;;;;8.63;4.28;;;;;;;17.81;79.25;100933.48;1660978;85;21117;-78
2022/08/22 06:51:25;;;;;;;10.65;4.50;;;;;;;17.85;79.26;100938.98;1627628;85;21519;-78
2022/08/22 06:54:17;;;;;;;6.17;4.35;;;;;;;17.89;79.29;100937.55;1668560;85;21018;-78
2022/08/22 06:57:05;;;;;;;8.80;4.78;;;;;;;17.93;79.33;100937.36;1654396;86;21581;-78
2022/08/22 06:59:52;;;;;;;10.28;4.80;;;;;;;17.97;79.34;100938.94;1629658;86;21091;-78
2022/08/22 07:02:45;;;;;;;10.20;4.42;;;;;;;18.01;79.33;100944.89;1616407;87;20994;-79
2022/08/22 07:05:34;;;;;;;8.40;4.15;;;;;;;18.03;79.39;100940.45;1669074;84;20916;-79
2022/08/22 07:08:22;;;;;;;10.18;4.70;;;;;;;18.06;79.32;100940.32;1676462;84;20964;-79
2022/08/22 07:11:33;;;;;;;5.65;4.30;;;;;;;18.08;79.34;100947.65;1675279;85;20929;-79
2022/08/22 07:14:31;;;;;;;6.83;3.60;;;;;;;18.09;79.38;100950.20;1670324;83;20983;-79
2022/08/22 07:17:29;;;;;;;10.30;4.50;;;;;;;18.10;79.38;100943.20;1673409;84;20963;-79
2022/08/22 07:20:23;;;;;;;5.75;4.08;;;;;;;18.13;79.46;100948.31;1673125;85;20939;-79
2022/08/22 07:23:33;;;;;;;9.60;4.70;;;;;;;18.17;79.50;100945.50;1671542;85;20962;-79
2022/08/22 07:26:27;;;;;;;7.65;4.30;;;;;;;18.21;79.47;100952.73;1671501;85;20915;-79
2022/08/22 07:29:27;;;;;;;8.73;4.37;;;;;;;18.22;79.45;100956.20;1665399;84;20935;-79
2022/08/22 07:32:20;;;;;;;4.80;4.03;;;;;;;18.23;79.46;100952.67;1666990;85;20919;-78
2022/08/22 07:35:24;;;;;;;6.47;4.30;;;;;;;18.25;79.49;100955.62;1670417;84;21428;-78
2022/08/22 07:38:41;;;;;;;7.20;4.15;;;;;;;18.27;79.46;100951.17;1671371;85;20927;-79
2022/08/22 07:41:39;;;;;;;7.10;4.33;;;;;;;18.30;79.48;100954.11;1669487;84;20959;-79
2022/08/22 07:44:31;;;;;;;14.60;4.65;;;;;;;18.33;79.49;100954.84;1671032;85;20939;-79
2022/08/22 07:47:20;;;;;;;6.72;4.30;;;;;;;18.37;79.51;100952.94;1673337;84;20899;-79
2022/08/22 07:50:08;;;;;;;6.28;4.25;;;;;;;18.42;79.55;100953.59;1670759;84;20930;-78
2022/08/22 07:52:57;;;;;;;6.83;4.00;;;;;;;18.45;79.54;100948.23;1665973;83;21139;-78
2022/08/22 07:55:43;;;;;;;6.40;3.95;;;;;;;18.46;79.51;100949.92;1666366;85;21081;-78
2022/08/22 07:58:32;;;;;;;11.10;4.97;;;;;;;18.48;79.53;100952.02;1669642;84;21297;-79
2022/08/22 08:01:21;;;;;;;6.22;3.62;;;;;;;18.51;79.57;100945.34;1668959;85;21693;-79
2022/08/22 08:04:11;;;;;;;6.15;4.55;;;;;;;18.53;79.56;100944.81;1672777;85;21054;-80
2022/08/22 08:07:00;;;;;;;8.65;4.22;;;;;;;18.55;79.57;100942.13;1678005;84;22385;-80
2022/08/22 08:10:10;;;;;;;8.98;5.30;;;;;;;18.55;79.61;100939.52;1673105;84;21106;-80
2022/08/22 08:13:06;;;;;;;7.80;4.85;;;;;;;18.55;79.54;100936.44;1664602;84;21030;-80
2022/08/22 08:15:52;;;;;;;9.05;4.87;;;;;;;18.56;79.60;100945.99;1679180;84;21341;-80
2022/08/22 08:18:39;;;;;;;6.25;4.55;;;;;;;18.58;79.61;100944.16;1678090;84;21021;-80
2022/08/22 08:21:32;;;;;;;9.80;4.72;;;;;;;18.61;79.64;100948.44;1677630;84;21042;-80
2022/08/22 08:24:22;;;;;;;4.85;4.28;;;;;;;18.62;79.63;100940.52;1659717;85;21105;-78
2022/08/22 08:30:30;;;;;;;8.38;4.70;;;;;;;18.68;79.65;100940.25;1662143;85;21014;-79
2022/08/22 08:33:22;;;;;;;7.30;4.72;;;;;;;18.72;79.69;100940.47;1658410;85;21082;-79
2022/08/22 08:36:22;;;;;;;9.68;4.50;;;;;;;18.75;79.65;100946.89;1656487;86;21089;-77
2022/08/22 08:39:27;;;;;;;7.67;4.90;;;;;;;18.75;79.64;100944.73;1661564;85;21081;-77
2022/08/22 08:46:17;;;;;;;8.20;4.90;;;;;;;18.77;79.65;100948.13;1654548;85;21021;-77
2022/08/22 08:49:13;;;;;;;8.77;4.70;;;;;;;18.76;79.68;100947.73;1659597;84;21096;-77
2022/08/22 08:52:21;;;;;;;6.58;5.42;;;;;;;18.78;79.66;100943.28;1656650;84;20966;-77
2022/08/22 08:55:30;;;;;;;7.45;4.50;;;;;;;18.78;79.63;100941.97;1620585;86;21072;-77
2022/08/22 08:58:32;;;;;;;8.45;4.35;;;;;;;18.77;79.66;100941.58;1655408;84;21526;-77
2022/08/22 09:01:52;;;;;;;8.43;4.58;;;;;;;18.77;79.66;100937.65;1667346;83;21014;-77
2022/08/22 09:04:51;;;;;;;6.58;3.90;;;;;;;18.77;79.66;100941.12;1673348;84;21572;-77
2022/08/22 09:07:57;;;;;;;10.75;5.12;;;;;;;18.76;79.63;100938.56;1631378;86;21342;-77
2022/08/22 09:11:11;;;;;;;9.23;4.47;;;;;;;18.74;79.59;100937.33;1649100;85;21087;-77
2022/08/22 09:14:17;;;;;;;4.70;4.30;;;;;;;18.75;79.65;100942.95;1662263;83;21082;-81
2022/08/22 09:17:36;;;;;;;8.20;3.85;;;;;;;18.75;79.65;100933.79;1616229;86;21133;-79
2022/08/22 09:20:33;;;;;;;7.95;3.75;;;;;;;18.75;79.62;100936.87;1668881;84;21613;-79
2022/08/22 09:23:39;;;;;;;6.70;4.03;;;;;;;18.77;79.68;100937.65;1662769;84;21144;-79
2022/08/22 09:26:51;;;;;;;5.90;3.70;;;;;;;18.79;79.69;100934.50;1655790;84;21183;-79
2022/08/22 09:29:53;;;;;;;4.45;3.62;;;;;;;18.82;79.70;100943.53;1660112;84;21140;-79
2022/08/22 09:33:00;;;;;;;8.80;3.62;;;;;;;18.82;79.62;100943.08;1621935;87;21185;-79
2022/08/22 09:35:59;;;;;;;5.85;3.22;;;;;;;18.83;79.64;100946.55;1662462;85;21627;-79
2022/08/22 09:39:08;;;;;;;10.48;4.67;;;;;;;18.84;79.68;100949.56;1659938;84;21120;-79
2022/08/22 09:42:01;;;;;;;8.30;3.75;;;;;;;18.85;79.64;100957.81;1660679;84;21094;-79
2022/08/22 09:45:16;;;;;;;7.22;3.62;;;;;;;18.86;79.65;100945.10;1661530;84;21143;-79
2022/08/22 09:48:35;;;;;;;7.20;3.27;;;;;;;18.88;79.69;100938.48;1654116;85;21592;-79
2022/08/22 09:51:44;;;;;;;7.60;3.40;;;;;;;18.88;79.65;100940.64;1608796;87;22369;-79
2022/08/22 09:54:50;;;;;;;4.67;3.17;;;;;;;18.89;79.62;100933.17;1605241;87;21216;-80
2022/08/22 09:58:12;;;;;;;7.00;3.27;;;;;;;18.89;79.65;100934.48;1545265;90;21137;-79
2022/08/22 10:01:08;;;;;;;6.47;4.50;;;;;;;18.91;79.67;100934.41;1593580;87;21097;-78
2022/08/22 10:04:32;;;;;;;5.05;3.35;;;;;;;18.93;79.70;100936.05;1575707;88;21177;-78
2022/08/22 10:07:53;;;;;;;5.33;3.47;;;;;;;18.98;79.66;100941.08;1579623;88;21271;-78
2022/08/22 10:10:49;;;;;;;5.83;3.58;;;;;;;19.02;79.69;100938.70;1578463;88;21222;-79
2022/08/22 10:13:58;;;;;;;5.67;3.50;;;;;;;19.09;79.75;100937.50;1582284;88;21259;-79
2022/08/22 10:17:10;;;;;;;3.45;3.20;;;;;;;19.12;79.73;100938.22;1533915;91;22066;-79
2022/08/22 10:20:16;;;;;;;6.87;3.50;;;;;;;19.14;79.67;100942.92;1548765;90;21234;-79
2022/08/22 10:23:18;;;;;;;6.90;3.77;;;;;;;19.17;79.70;100941.94;1585205;88;21065;-79
2022/08/22 10:26:20;;;;;;;7.78;3.77;;;;;;;19.21;79.66;100940.02;1575031;85;21169;-79
2022/08/22 10:29:27;;;;;;;8.35;4.05;;;;;;;19.21;79.65;100938.25;1670985;84;21093;-79
2022/08/22 10:32:20;;;;;;;8.23;3.08;;;;;;;19.20;79.65;100948.35;1672011;84;21113;-79
2022/08/22 10:35:22;;;;;;;4.97;2.65;;;;;;;19.22;79.68;100945.20;1647711;85;21116;-78
2022/08/22 10:38:24;;;;;;;6.33;2.92;;;;;;;19.24;79.66;100947.72;1649423;85;21149;-78
2022/08/22 10:41:23;;;;;;;8.28;3.10;;;;;;;19.25;79.68;100951.58;1649662;85;21687;-78
2022/08/22 10:44:21;;;;;;;6.78;3.05;;;;;;;19.27;79.66;100948.88;1650517;85;21125;-79
2022/08/22 10:47:13;;;;;;;3.80;3.33;;;;;;;19.29;79.64;100951.83;1632274;85;21151;-79
2022/08/22 10:50:18;;;;;;;6.40;3.80;;;;;;;19.31;79.62;100953.06;1651482;86;21077;-79
2022/08/22 10:53:29;;;;;;;8.20;4.12;;;;;;;19.31;79.67;100957.00;1646891;85;20927;-79
2022/08/22 10:56:25;;;;;;;4.87;3.47;;;;;;;19.31;79.69;100954.38;1654683;85;21461;-79
2022/08/22 10:59:45;;;;;;;5.10;3.70;;;;;;;19.30;79.70;100952.21;1648877;85;21427;-79
2022/08/22 11:02:54;;;;;;;4.83;3.77;;;;;;;19.31;79.69;100955.69;1650572;85;20942;-79
2022/08/22 11:05:45;;;;;;;4.40;3.90;;;;;;;19.29;79.67;100950.52;1651290;85;21058;-79
2022/08/22 11:09:19;;;;;;;7.08;3.72;;;;;;;19.27;79.69;100948.88;1651145;84;20922;-79
2022/08/22 11:12:29;;;;;;;5.15;3.42;;;;;;;19.22;79.66;100951.75;1656289;83;20935;-79
2022/08/22 11:15:52;;;;;;;4.95;4.03;;;;;;;19.18;79.73;100954.97;1669947;84;21487;-79
2022/08/22 11:19:19;;;;;;;4.00;3.20;;;;;;;19.11;79.76;100961.88;1648273;85;21361;-80
2022/08/22 11:22:29;;;;;;;4.55;2.52;;;;;;;18.93;79.72;100965.33;1673675;85;21398;-79
2022/08/22 11:25:42;;;;;;;4.50;2.67;;;;;;;18.85;79.72;100970.45;1676351;84;20915;-79
2022/08/22 11:28:59;;;;;;;6.60;2.58;;;;;;;18.82;79.80;100972.36;1672143;84;20967;-79
2022/08/22 11:32:08;;;;;;;5.58;1.90;;;;;;;18.79;79.79;100969.41;1672696;83;20916;-79
2022/08/22 11:35:27;;;;;;;6.20;2.12;;;;;;;18.73;79.70;100974.92;1669932;84;21027;-79
2022/08/22 11:38:36;;;;;;;6.00;2.17;;;;;;;18.66;79.70;100982.69;1667237;84;21010;-78
2022/08/22 11:41:35;;;;;;;4.83;2.55;;;;;;;18.59;79.72;100982.53;1623945;86;21561;-78
2022/08/22 11:44:29;;;;;;;3.67;2.47;;;;;;;18.57;79.78;100988.29;1623554;86;21145;-78
2022/08/22 11:47:19;;;;;;;4.15;2.55;;;;;;;18.57;79.77;100984.82;1627404;86;21097;-78
2022/08/22 11:50:34;;;;;;;4.67;2.98;;;;;;;18.56;79.74;100996.21;1622715;84;21614;-78
2022/08/22 11:53:36;;;;;;;5.53;2.42;;;;;;;18.54;79.79;100991.04;1617053;86;21263;-78
2022/08/22 11:56:35;;;;;;;6.17;2.25;;;;;;;18.54;79.82;100988.42;1615431;86;21187;-78
2022/08/22 11:59:51;;;;;;;4.00;2.37;;;;;;;18.56;79.81;100993.59;1628504;86;21216;-79
2022/08/22 12:02:56;;;;;;;3.02;2.55;;;;;;;18.58;79.80;100994.38;1627074;87;21136;-78
2022/08/22 12:05:52;;;;;;;7.90;5.90;;;;;;;18.59;79.79;100989.08;1625153;87;21247;-79
2022/08/22 12:09:06;;;;;;;3.98;3.55;;;;;;;18.61;79.81;100983.80;1620214;86;21157;-79
2022/08/22 12:12:13;;;;;;;3.10;2.90;;;;;;;18.61;79.76;100985.97;1629768;85;20973;-78
2022/08/22 12:15:16;;;;;;;3.62;2.98;;;;;;;18.61;79.74;100983.80;1670408;84;21076;-78
2022/08/22 12:18:35;;;;;;;6.90;4.03;;;;;;;18.60;79.80;100980.76;1665905;84;21425;-79
2022/08/22 12:21:48;;;;;;;5.22;3.90;;;;;;;18.57;79.82;100979.58;1670518;84;21391;-78
2022/08/22 12:24:53;;;;;;;5.28;2.80;;;;;;;18.57;79.83;100975.66;1669756;84;21093;-78
2022/08/22 12:27:52;;;;;;;4.55;2.92;;;;;;;18.55;79.79;100986.66;1659963;84;21414;-78
2022/08/22 12:30:48;;;;;;;4.00;2.60;;;;;;;18.52;79.83;100980.63;1664985;84;21045;-78
2022/08/22 12:33:59;;;;;;;2.70;2.47;;;;;;;18.49;79.88;100979.45;1673127;83;21024;-78
2022/08/22 12:37:10;;;;;;;5.28;3.12;;;;;;;18.50;79.87;100978.53;1663010;84;21668;-78
2022/08/22 12:40:33;;;;;;;5.37;2.62;;;;;;;18.50;79.89;100971.14;1666666;83;21085;-78
2022/08/22 12:43:38;;;;;;;3.62;2.42;;;;;;;18.46;79.81;100974.80;1671339;83;21146;-78
2022/08/22 12:47:00;;;;;;;3.30;2.85;;;;;;;18.44;79.92;100970.94;1658298;84;21592;-78
2022/08/22 12:50:12;;;;;;;3.77;2.58;;;;;;;18.45;79.94;100975.27;1671187;84;21051;-79
2022/08/22 12:53:14;;;;;;;7.20;3.65;;;;;;;18.46;79.94;100971.73;1669585;85;21664;-78
2022/08/22 12:56:40;;;;;;;5.83;3.10;;;;;;;18.45;79.98;100968.72;1669383;84;21470;-78
2022/08/22 12:59:47;;;;;;;3.55;2.62;;;;;;;18.44;79.89;100969.63;1663378;84;22208;-78
2022/08/22 13:02:36;;;;;;;3.92;2.85;;;;;;;18.41;79.99;100968.91;1665204;84;21109;-78
2022/08/22 13:05:28;;;;;;;3.62;2.95;;;;;;;18.40;80.01;100970.67;1667658;83;21056;-78
2022/08/22 13:08:21;;;;;;;4.03;2.87;;;;;;;18.41;80.03;100968.91;1667786;84;21042;-78
2022/08/22 13:11:11;;;;;;;5.62;3.22;;;;;;;18.40;80.03;100966.75;1657629;85;21629;-79
2022/08/22 13:13:59;;;;;;;4.65;3.47;;;;;;;18.41;80.06;100959.29;1673029;84;21419;-79
2022/08/22 13:16:50;;;;;;;4.80;3.40;;;;;;;18.42;80.08;100956.21;1671416;84;20918;-79
2022/08/22 13:19:58;;;;;;;7.92;3.85;;;;;;;18.43;80.06;100961.38;1671972;83;20942;-79
2022/08/22 13:22:43;;;;;;;4.47;3.20;;;;;;;18.45;80.09;100962.63;1657466;84;20961;-79
2022/08/22 13:25:31;;;;;;;7.35;3.70;;;;;;;18.48;80.13;100953.33;1660411;85;20942;-79
2022/08/22 13:28:17;;;;;;;4.78;3.35;;;;;;;18.50;80.20;100956.28;1638333;85;21357;-79
2022/08/22 13:31:04;;;;;;;7.67;3.77;;;;;;;18.54;80.20;100945.21;1639735;86;21402;-79
2022/08/22 13:33:51;;;;;;;5.25;3.58;;;;;;;18.58;80.22;100944.16;1668219;85;20978;-77
2022/08/22 13:36:49;;;;;;;5.17;3.08;;;;;;;18.63;80.26;100941.38;1675269;84;20954;-79
2022/08/22 13:39:45;;;;;;;6.05;3.30;;;;;;;18.70;80.27;100942.80;1679473;83;20950;-79
2022/08/22 13:42:32;;;;;;;;;;;;;;;18.75;80.29;100934.25;1665037;84;22131;-79
2022/08/22 13:45:25;;;;;;;6.28;3.70;;;;;;;18.81;80.52;100933.52;1664651;84;20213;-79
2022/08/22 13:48:15;;;;;;;5.90;3.10;;;;;;;18.87;80.36;100931.54;1651263;85;21142;-78
2022/08/22 13:51:20;;;;;;;7.83;3.85;;;;;;;18.95;80.36;100930.27;1665918;85;21026;-79
2022/08/22 13:54:26;;;;;;;6.78;3.10;;;;;;;19.02;80.35;100924.29;1670133;84;21160;-80
2022/08/22 13:57:37;;;;;;;5.70;3.08;;;;;;;19.07;80.33;100924.47;1668835;84;21023;-80
2022/08/22 14:01:02;;;;;;;4.62;2.95;;;;;;;19.10;80.30;100924.33;1672643;84;21113;-80
2022/08/22 14:03:51;;;;;;;;;;;;;;;19.15;80.29;100925.42;1666968;84;21560;-79
2022/08/22 14:06:59;;;;;;;3.92;2.25;;;;;;;19.18;80.38;100922.20;1653542;85;20190;-79
2022/08/22 14:09:55;;;;;;;3.15;2.60;;;;;;;19.23;80.32;100919.37;1661373;85;21479;-79
2022/08/22 14:12:57;;;;;;;4.37;2.77;;;;;;;19.27;80.27;100918.73;1638811;86;21196;-79
2022/08/22 14:15:42;;;;;;;3.52;2.52;;;;;;;19.30;80.30;100915.97;1643087;84;21133;-80